sensor_id;sensor_type;location;lat;lon;timestamp;temperature;humidity
43520;DHT22;46848;51.980;5.918;2023-12-20T00:01:47;9.40;90.10
43520;DHT22;46848;51.980;5.918;2023-12-20T00:04:12;9.30;90.10
43520;DHT22;46848;51.980;5.918;2023-12-20T00:06:38;9.30;90.10
43520;DHT22;46848;51.980;5.918;2023-12-20T00:09:03;9.30;90.10
43520;DHT22;46848;51.980;5.918;2023-12-20T00:11:29;9.30;90.10
43520;DHT22;46848;51.980;5.918;2023-12-20T00:13:54;9.20;90.10
43520;DHT22;46848;51.980;5.918;2023-12-20T00:16:20;9.30;90.10
43520;DHT22;46848;51.980;5.918;2023-12-20T00:18:45;9.20;90.10
43520;DHT22;46848;51.980;5.918;2023-12-20T00:21:11;9.20;90.10
43520;DHT22;46848;51.980;5.918;2023-12-20T00:23:37;9.20;90.10
43520;DHT22;46848;51.980;5.918;2023-12-20T00:26:02;9.20;90.10
43520;DHT22;46848;51.980;5.918;2023-12-20T00:28:28;9.20;90.10
43520;DHT22;46848;51.980;5.918;2023-12-20T00:30:53;9.20;90.10
43520;DHT22;46848;51.980;5.918;2023-12-20T00:33:19;9.20;90.00
43520;DHT22;46848;51.980;5.918;2023-12-20T00:35:45;9.20;90.10
43520;DHT22;46848;51.980;5.918;2023-12-20T00:38:10;9.20;90.00
43520;DHT22;46848;51.980;5.918;2023-12-20T00:40:37;9.20;90.00
43520;DHT22;46848;51.980;5.918;2023-12-20T00:43:03;9.10;90.00
43520;DHT22;46848;51.980;5.918;2023-12-20T00:45:28;9.10;89.90
43520;DHT22;46848;51.980;5.918;2023-12-20T00:47:54;9.10;90.00
43520;DHT22;46848;51.980;5.918;2023-12-20T00:50:20;9.10;90.00
43520;DHT22;46848;51.980;5.918;2023-12-20T00:52:47;9.00;89.90
43520;DHT22;46848;51.980;5.918;2023-12-20T00:55:13;9.00;89.90
43520;DHT22;46848;51.980;5.918;2023-12-20T00:57:38;9.00;89.90
43520;DHT22;46848;51.980;5.918;2023-12-20T01:00:04;9.00;89.90
43520;DHT22;46848;51.980;5.918;2023-12-20T01:02:30;9.00;89.90
43520;DHT22;46848;51.980;5.918;2023-12-20T01:04:56;9.00;89.90
43520;DHT22;46848;51.980;5.918;2023-12-20T01:07:21;9.00;89.80
43520;DHT22;46848;51.980;5.918;2023-12-20T01:09:47;9.00;89.90
43520;DHT22;46848;51.980;5.918;2023-12-20T01:12:12;9.00;89.90
43520;DHT22;46848;51.980;5.918;2023-12-20T01:14:38;9.00;89.90
43520;DHT22;46848;51.980;5.918;2023-12-20T01:17:05;8.90;89.90
43520;DHT22;46848;51.980;5.918;2023-12-20T01:19:30;8.90;89.80
43520;DHT22;46848;51.980;5.918;2023-12-20T01:21:56;8.90;89.80
43520;DHT22;46848;51.980;5.918;2023-12-20T01:24:21;8.90;89.90
43520;DHT22;46848;51.980;5.918;2023-12-20T01:26:47;8.80;89.80
43520;DHT22;46848;51.980;5.918;2023-12-20T01:29:13;8.80;89.80
43520;DHT22;46848;51.980;5.918;2023-12-20T01:31:39;8.80;89.80
43520;DHT22;46848;51.980;5.918;2023-12-20T01:34:06;8.80;89.90
43520;DHT22;46848;51.980;5.918;2023-12-20T01:36:31;8.70;89.90
43520;DHT22;46848;51.980;5.918;2023-12-20T01:38:57;8.80;90.00
43520;DHT22;46848;51.980;5.918;2023-12-20T01:41:23;8.80;89.90
43520;DHT22;46848;51.980;5.918;2023-12-20T01:43:49;8.70;89.80
43520;DHT22;46848;51.980;5.918;2023-12-20T01:46:14;8.70;89.80
43520;DHT22;46848;51.980;5.918;2023-12-20T01:48:43;8.70;89.80
43520;DHT22;46848;51.980;5.918;2023-12-20T01:51:09;8.70;89.80
43520;DHT22;46848;51.980;5.918;2023-12-20T01:53:36;8.70;89.90
43520;DHT22;46848;51.980;5.918;2023-12-20T01:56:02;8.70;89.80
43520;DHT22;46848;51.980;5.918;2023-12-20T01:58:27;8.60;89.70
43520;DHT22;46848;51.980;5.918;2023-12-20T02:00:54;8.70;89.80
43520;DHT22;46848;51.980;5.918;2023-12-20T02:03:20;8.60;89.70
43520;DHT22;46848;51.980;5.918;2023-12-20T02:05:47;8.60;89.80
43520;DHT22;46848;51.980;5.918;2023-12-20T02:08:13;8.50;89.70
43520;DHT22;46848;51.980;5.918;2023-12-20T02:10:39;8.60;89.70
43520;DHT22;46848;51.980;5.918;2023-12-20T02:13:06;8.50;89.70
43520;DHT22;46848;51.980;5.918;2023-12-20T02:15:31;8.60;89.70
43520;DHT22;46848;51.980;5.918;2023-12-20T02:17:57;8.50;89.60
43520;DHT22;46848;51.980;5.918;2023-12-20T02:20:25;8.50;89.70
43520;DHT22;46848;51.980;5.918;2023-12-20T02:22:51;8.50;89.60
43520;DHT22;46848;51.980;5.918;2023-12-20T02:25:16;8.50;89.60
43520;DHT22;46848;51.980;5.918;2023-12-20T02:27:42;8.50;89.70
43520;DHT22;46848;51.980;5.918;2023-12-20T02:30:08;8.50;89.70
43520;DHT22;46848;51.980;5.918;2023-12-20T02:32:34;8.50;89.70
43520;DHT22;46848;51.980;5.918;2023-12-20T02:34:59;8.50;89.70
43520;DHT22;46848;51.980;5.918;2023-12-20T02:37:25;8.50;89.80
43520;DHT22;46848;51.980;5.918;2023-12-20T02:39:51;8.50;89.80
43520;DHT22;46848;51.980;5.918;2023-12-20T02:42:19;8.50;89.80
43520;DHT22;46848;51.980;5.918;2023-12-20T02:44:45;8.60;89.90
43520;DHT22;46848;51.980;5.918;2023-12-20T02:47:10;8.60;89.90
43520;DHT22;46848;51.980;5.918;2023-12-20T02:49:36;8.70;90.00
43520;DHT22;46848;51.980;5.918;2023-12-20T02:52:02;8.70;89.90
43520;DHT22;46848;51.980;5.918;2023-12-20T02:54:27;8.70;89.80
43520;DHT22;46848;51.980;5.918;2023-12-20T02:56:53;8.70;89.70
43520;DHT22;46848;51.980;5.918;2023-12-20T02:59:18;8.70;89.70
43520;DHT22;46848;51.980;5.918;2023-12-20T03:01:45;8.80;89.70
43520;DHT22;46848;51.980;5.918;2023-12-20T03:04:11;8.80;89.70
43520;DHT22;46848;51.980;5.918;2023-12-20T03:06:38;8.80;89.60
43520;DHT22;46848;51.980;5.918;2023-12-20T03:09:04;8.90;89.60
43520;DHT22;46848;51.980;5.918;2023-12-20T03:11:30;8.90;89.70
43520;DHT22;46848;51.980;5.918;2023-12-20T03:13:56;8.90;89.60
43520;DHT22;46848;51.980;5.918;2023-12-20T03:16:22;8.90;89.60
43520;DHT22;46848;51.980;5.918;2023-12-20T03:18:48;8.90;89.60
43520;DHT22;46848;51.980;5.918;2023-12-20T03:21:13;9.00;89.50
43520;DHT22;46848;51.980;5.918;2023-12-20T03:23:40;9.00;89.50
43520;DHT22;46848;51.980;5.918;2023-12-20T03:26:09;9.00;89.50
43520;DHT22;46848;51.980;5.918;2023-12-20T03:28:34;9.00;89.50
43520;DHT22;46848;51.980;5.918;2023-12-20T03:31:01;9.00;89.50
43520;DHT22;46848;51.980;5.918;2023-12-20T03:33:28;9.00;89.30
43520;DHT22;46848;51.980;5.918;2023-12-20T03:35:53;9.00;89.30
43520;DHT22;46848;51.980;5.918;2023-12-20T03:38:19;9.00;89.20
43520;DHT22;46848;51.980;5.918;2023-12-20T03:40:44;8.90;89.20
43520;DHT22;46848;51.980;5.918;2023-12-20T03:43:10;8.90;89.20
43520;DHT22;46848;51.980;5.918;2023-12-20T03:45:35;9.00;89.30
43520;DHT22;46848;51.980;5.918;2023-12-20T03:48:01;9.00;89.30
43520;DHT22;46848;51.980;5.918;2023-12-20T03:50:27;9.00;89.20
43520;DHT22;46848;51.980;5.918;2023-12-20T03:52:52;9.00;89.20
43520;DHT22;46848;51.980;5.918;2023-12-20T03:55:18;9.00;89.10
43520;DHT22;46848;51.980;5.918;2023-12-20T03:57:44;8.90;89.00
43520;DHT22;46848;51.980;5.918;2023-12-20T04:00:10;8.90;89.10
43520;DHT22;46848;51.980;5.918;2023-12-20T04:02:40;9.00;89.20
43520;DHT22;46848;51.980;5.918;2023-12-20T04:05:07;9.00;89.10
43520;DHT22;46848;51.980;5.918;2023-12-20T04:07:33;9.00;89.00
43520;DHT22;46848;51.980;5.918;2023-12-20T04:09:59;9.00;89.10
43520;DHT22;46848;51.980;5.918;2023-12-20T04:12:24;8.90;88.90
43520;DHT22;46848;51.980;5.918;2023-12-20T04:14:50;8.90;88.90
43520;DHT22;46848;51.980;5.918;2023-12-20T04:17:16;8.90;88.90
43520;DHT22;46848;51.980;5.918;2023-12-20T04:19:42;9.00;89.00
43520;DHT22;46848;51.980;5.918;2023-12-20T04:22:08;9.00;89.00
43520;DHT22;46848;51.980;5.918;2023-12-20T04:24:34;9.00;89.00
43520;DHT22;46848;51.980;5.918;2023-12-20T04:26:59;9.00;89.00
43520;DHT22;46848;51.980;5.918;2023-12-20T04:29:25;9.00;88.90
43520;DHT22;46848;51.980;5.918;2023-12-20T04:31:50;9.00;88.90
43520;DHT22;46848;51.980;5.918;2023-12-20T04:34:20;9.00;88.90
43520;DHT22;46848;51.980;5.918;2023-12-20T04:36:46;9.00;88.80
43520;DHT22;46848;51.980;5.918;2023-12-20T04:39:13;9.00;88.80
43520;DHT22;46848;51.980;5.918;2023-12-20T04:41:38;9.00;88.80
43520;DHT22;46848;51.980;5.918;2023-12-20T04:44:04;9.00;88.70
43520;DHT22;46848;51.980;5.918;2023-12-20T04:46:30;9.00;88.70
43520;DHT22;46848;51.980;5.918;2023-12-20T04:48:55;9.00;88.60
43520;DHT22;46848;51.980;5.918;2023-12-20T04:51:21;9.00;88.60
43520;DHT22;46848;51.980;5.918;2023-12-20T04:53:47;9.10;88.70
43520;DHT22;46848;51.980;5.918;2023-12-20T04:56:12;9.10;88.60
43520;DHT22;46848;51.980;5.918;2023-12-20T04:58:38;9.10;88.50
43520;DHT22;46848;51.980;5.918;2023-12-20T05:01:05;9.10;88.50
43520;DHT22;46848;51.980;5.918;2023-12-20T05:03:31;9.10;88.50
43520;DHT22;46848;51.980;5.918;2023-12-20T05:05:57;9.20;88.50
43520;DHT22;46848;51.980;5.918;2023-12-20T05:08:23;9.10;88.50
43520;DHT22;46848;51.980;5.918;2023-12-20T05:10:49;9.20;88.40
43520;DHT22;46848;51.980;5.918;2023-12-20T05:13:14;9.20;88.50
43520;DHT22;46848;51.980;5.918;2023-12-20T05:15:40;9.20;88.40
43520;DHT22;46848;51.980;5.918;2023-12-20T05:18:06;9.20;88.40
43520;DHT22;46848;51.980;5.918;2023-12-20T05:20:32;9.20;88.20
43520;DHT22;46848;51.980;5.918;2023-12-20T05:22:57;9.30;88.30
43520;DHT22;46848;51.980;5.918;2023-12-20T05:25:23;9.20;88.20
43520;DHT22;46848;51.980;5.918;2023-12-20T05:27:50;9.30;88.20
43520;DHT22;46848;51.980;5.918;2023-12-20T05:30:16;9.20;88.10
43520;DHT22;46848;51.980;5.918;2023-12-20T05:32:41;9.30;88.10
43520;DHT22;46848;51.980;5.918;2023-12-20T05:35:07;9.30;88.20
43520;DHT22;46848;51.980;5.918;2023-12-20T05:37:32;9.30;88.00
43520;DHT22;46848;51.980;5.918;2023-12-20T05:39:58;9.40;88.10
43520;DHT22;46848;51.980;5.918;2023-12-20T05:42:24;9.30;88.00
43520;DHT22;46848;51.980;5.918;2023-12-20T05:44:49;9.30;87.90
43520;DHT22;46848;51.980;5.918;2023-12-20T05:47:15;9.40;87.90
43520;DHT22;46848;51.980;5.918;2023-12-20T05:49:40;9.40;87.90
43520;DHT22;46848;51.980;5.918;2023-12-20T05:52:06;9.40;87.90
43520;DHT22;46848;51.980;5.918;2023-12-20T05:54:32;9.40;87.80
43520;DHT22;46848;51.980;5.918;2023-12-20T05:56:57;9.40;87.60
43520;DHT22;46848;51.980;5.918;2023-12-20T05:59:23;9.40;87.80
43520;DHT22;46848;51.980;5.918;2023-12-20T06:01:49;9.40;87.70
43520;DHT22;46848;51.980;5.918;2023-12-20T06:04:14;9.50;87.70
43520;DHT22;46848;51.980;5.918;2023-12-20T06:06:41;9.50;87.60
43520;DHT22;46848;51.980;5.918;2023-12-20T06:09:07;9.50;87.60
43520;DHT22;46848;51.980;5.918;2023-12-20T06:11:33;9.50;87.50
43520;DHT22;46848;51.980;5.918;2023-12-20T06:13:58;9.50;87.50
43520;DHT22;46848;51.980;5.918;2023-12-20T06:16:24;9.50;87.50
43520;DHT22;46848;51.980;5.918;2023-12-20T06:18:50;9.50;87.40
43520;DHT22;46848;51.980;5.918;2023-12-20T06:21:15;9.50;87.30
43520;DHT22;46848;51.980;5.918;2023-12-20T06:23:41;9.50;87.30
43520;DHT22;46848;51.980;5.918;2023-12-20T06:26:07;9.50;87.30
43520;DHT22;46848;51.980;5.918;2023-12-20T06:28:32;9.50;87.30
43520;DHT22;46848;51.980;5.918;2023-12-20T06:30:58;9.50;87.20
43520;DHT22;46848;51.980;5.918;2023-12-20T06:33:24;9.50;87.00
43520;DHT22;46848;51.980;5.918;2023-12-20T06:35:50;9.50;87.10
43520;DHT22;46848;51.980;5.918;2023-12-20T06:38:17;9.60;87.10
43520;DHT22;46848;51.980;5.918;2023-12-20T06:40:43;9.50;87.00
43520;DHT22;46848;51.980;5.918;2023-12-20T06:43:09;9.50;87.00
43520;DHT22;46848;51.980;5.918;2023-12-20T06:45:34;9.50;87.00
43520;DHT22;46848;51.980;5.918;2023-12-20T06:48:00;9.50;87.00
43520;DHT22;46848;51.980;5.918;2023-12-20T06:50:25;9.60;87.00
43520;DHT22;46848;51.980;5.918;2023-12-20T06:52:51;9.60;87.00
43520;DHT22;46848;51.980;5.918;2023-12-20T06:55:17;9.60;86.90
43520;DHT22;46848;51.980;5.918;2023-12-20T06:57:43;9.60;86.90
43520;DHT22;46848;51.980;5.918;2023-12-20T07:00:11;9.60;86.90
43520;DHT22;46848;51.980;5.918;2023-12-20T07:02:37;9.60;86.80
43520;DHT22;46848;51.980;5.918;2023-12-20T07:05:02;9.60;86.70
43520;DHT22;46848;51.980;5.918;2023-12-20T07:07:28;9.60;86.60
43520;DHT22;46848;51.980;5.918;2023-12-20T07:09:53;9.70;86.50
43520;DHT22;46848;51.980;5.918;2023-12-20T07:12:19;9.60;86.50
43520;DHT22;46848;51.980;5.918;2023-12-20T07:14:45;9.60;86.40
43520;DHT22;46848;51.980;5.918;2023-12-20T07:17:11;9.60;86.40
43520;DHT22;46848;51.980;5.918;2023-12-20T07:19:39;9.60;86.40
43520;DHT22;46848;51.980;5.918;2023-12-20T07:22:05;9.60;86.50
43520;DHT22;46848;51.980;5.918;2023-12-20T07:24:31;9.60;86.40
43520;DHT22;46848;51.980;5.918;2023-12-20T07:26:57;9.60;86.40
43520;DHT22;46848;51.980;5.918;2023-12-20T07:29:23;9.60;86.40
43520;DHT22;46848;51.980;5.918;2023-12-20T07:31:48;9.60;86.30
43520;DHT22;46848;51.980;5.918;2023-12-20T07:34:14;9.60;86.30
43520;DHT22;46848;51.980;5.918;2023-12-20T07:36:40;9.60;86.30
43520;DHT22;46848;51.980;5.918;2023-12-20T07:39:05;9.60;86.30
43520;DHT22;46848;51.980;5.918;2023-12-20T07:41:31;9.60;86.30
43520;DHT22;46848;51.980;5.918;2023-12-20T07:43:56;9.60;86.20
43520;DHT22;46848;51.980;5.918;2023-12-20T07:46:22;9.60;86.20
43520;DHT22;46848;51.980;5.918;2023-12-20T07:48:48;9.60;86.30
43520;DHT22;46848;51.980;5.918;2023-12-20T07:51:14;9.60;86.20
43520;DHT22;46848;51.980;5.918;2023-12-20T07:53:40;9.60;86.30
43520;DHT22;46848;51.980;5.918;2023-12-20T07:56:15;9.60;86.20
43520;DHT22;46848;51.980;5.918;2023-12-20T07:58:41;9.60;86.10
43520;DHT22;46848;51.980;5.918;2023-12-20T08:01:07;9.60;86.10
43520;DHT22;46848;51.980;5.918;2023-12-20T08:03:32;9.60;86.00
43520;DHT22;46848;51.980;5.918;2023-12-20T08:05:58;9.60;86.10
43520;DHT22;46848;51.980;5.918;2023-12-20T08:08:25;9.60;86.10
43520;DHT22;46848;51.980;5.918;2023-12-20T08:10:50;9.70;86.50
43520;DHT22;46848;51.980;5.918;2023-12-20T08:13:16;9.70;86.20
43520;DHT22;46848;51.980;5.918;2023-12-20T08:15:42;9.70;86.20
43520;DHT22;46848;51.980;5.918;2023-12-20T08:18:07;9.70;86.30
43520;DHT22;46848;51.980;5.918;2023-12-20T08:20:33;9.80;86.30
43520;DHT22;46848;51.980;5.918;2023-12-20T08:22:58;9.80;86.30
43520;DHT22;46848;51.980;5.918;2023-12-20T08:25:24;9.80;86.00
43520;DHT22;46848;51.980;5.918;2023-12-20T08:27:49;9.80;86.00
43520;DHT22;46848;51.980;5.918;2023-12-20T08:30:15;9.80;86.00
43520;DHT22;46848;51.980;5.918;2023-12-20T08:32:46;9.80;85.90
43520;DHT22;46848;51.980;5.918;2023-12-20T08:35:11;9.80;85.90
43520;DHT22;46848;51.980;5.918;2023-12-20T08:37:37;9.80;85.80
43520;DHT22;46848;51.980;5.918;2023-12-20T08:40:02;9.80;85.90
43520;DHT22;46848;51.980;5.918;2023-12-20T08:42:28;9.80;85.80
43520;DHT22;46848;51.980;5.918;2023-12-20T08:44:59;9.80;85.90
43520;DHT22;46848;51.980;5.918;2023-12-20T08:47:25;9.90;85.90
43520;DHT22;46848;51.980;5.918;2023-12-20T08:49:50;9.90;85.90
43520;DHT22;46848;51.980;5.918;2023-12-20T08:52:16;9.90;85.70
43520;DHT22;46848;51.980;5.918;2023-12-20T08:54:42;9.90;85.80
43520;DHT22;46848;51.980;5.918;2023-12-20T08:57:07;9.90;85.80
43520;DHT22;46848;51.980;5.918;2023-12-20T08:59:33;9.90;85.80
43520;DHT22;46848;51.980;5.918;2023-12-20T09:01:59;9.90;85.80
43520;DHT22;46848;51.980;5.918;2023-12-20T09:04:25;9.90;85.60
43520;DHT22;46848;51.980;5.918;2023-12-20T09:06:50;10.00;85.90
43520;DHT22;46848;51.980;5.918;2023-12-20T09:09:16;10.00;85.80
43520;DHT22;46848;51.980;5.918;2023-12-20T09:11:41;9.90;85.80
43520;DHT22;46848;51.980;5.918;2023-12-20T09:14:07;10.00;85.90
43520;DHT22;46848;51.980;5.918;2023-12-20T09:16:33;10.00;85.90
43520;DHT22;46848;51.980;5.918;2023-12-20T09:18:59;10.00;85.90
43520;DHT22;46848;51.980;5.918;2023-12-20T09:21:24;10.00;85.90
43520;DHT22;46848;51.980;5.918;2023-12-20T09:23:50;10.00;85.90
43520;DHT22;46848;51.980;5.918;2023-12-20T09:26:15;10.00;85.90
43520;DHT22;46848;51.980;5.918;2023-12-20T09:28:41;10.00;86.00
43520;DHT22;46848;51.980;5.918;2023-12-20T09:31:07;10.00;86.10
43520;DHT22;46848;51.980;5.918;2023-12-20T09:33:33;10.00;86.20
43520;DHT22;46848;51.980;5.918;2023-12-20T09:35:59;10.00;86.20
43520;DHT22;46848;51.980;5.918;2023-12-20T09:38:24;10.00;86.40
43520;DHT22;46848;51.980;5.918;2023-12-20T09:40:50;10.00;86.40
43520;DHT22;46848;51.980;5.918;2023-12-20T09:43:19;10.00;86.50
43520;DHT22;46848;51.980;5.918;2023-12-20T09:45:46;10.00;86.60
43520;DHT22;46848;51.980;5.918;2023-12-20T09:48:13;10.00;86.70
43520;DHT22;46848;51.980;5.918;2023-12-20T09:50:41;10.00;86.80
43520;DHT22;46848;51.980;5.918;2023-12-20T09:53:09;9.90;86.80
43520;DHT22;46848;51.980;5.918;2023-12-20T09:55:41;9.90;87.00
43520;DHT22;46848;51.980;5.918;2023-12-20T09:58:07;9.90;87.00
43520;DHT22;46848;51.980;5.918;2023-12-20T10:00:34;9.90;87.00
43520;DHT22;46848;51.980;5.918;2023-12-20T10:03:00;9.90;87.10
43520;DHT22;46848;51.980;5.918;2023-12-20T10:05:31;10.00;87.20
43520;DHT22;46848;51.980;5.918;2023-12-20T10:07:57;10.00;87.20
43520;DHT22;46848;51.980;5.918;2023-12-20T10:10:23;10.00;87.20
43520;DHT22;46848;51.980;5.918;2023-12-20T10:13:03;10.00;87.10
43520;DHT22;46848;51.980;5.918;2023-12-20T10:15:29;10.10;87.20
43520;DHT22;46848;51.980;5.918;2023-12-20T10:17:56;10.10;87.20
43520;DHT22;46848;51.980;5.918;2023-12-20T10:20:22;10.10;87.20
43520;DHT22;46848;51.980;5.918;2023-12-20T10:22:48;10.10;87.10
43520;DHT22;46848;51.980;5.918;2023-12-20T10:25:14;10.10;87.10
43520;DHT22;46848;51.980;5.918;2023-12-20T10:27:40;10.10;87.20
43520;DHT22;46848;51.980;5.918;2023-12-20T10:30:06;10.10;87.20
43520;DHT22;46848;51.980;5.918;2023-12-20T10:32:31;10.10;87.20
43520;DHT22;46848;51.980;5.918;2023-12-20T10:34:57;10.20;87.30
43520;DHT22;46848;51.980;5.918;2023-12-20T10:37:24;10.20;87.20
43520;DHT22;46848;51.980;5.918;2023-12-20T10:39:54;10.20;87.20
43520;DHT22;46848;51.980;5.918;2023-12-20T10:42:26;10.20;87.10
43520;DHT22;46848;51.980;5.918;2023-12-20T10:44:52;10.20;87.10
43520;DHT22;46848;51.980;5.918;2023-12-20T10:47:19;10.30;87.10
43520;DHT22;46848;51.980;5.918;2023-12-20T10:49:46;10.30;87.10
43520;DHT22;46848;51.980;5.918;2023-12-20T10:52:12;10.30;87.00
43520;DHT22;46848;51.980;5.918;2023-12-20T10:54:39;10.30;87.00
43520;DHT22;46848;51.980;5.918;2023-12-20T10:57:06;10.30;87.00
43520;DHT22;46848;51.980;5.918;2023-12-20T10:59:33;10.30;86.90
43520;DHT22;46848;51.980;5.918;2023-12-20T11:02:03;10.30;87.00
43520;DHT22;46848;51.980;5.918;2023-12-20T11:07:33;10.30;87.10
43520;DHT22;46848;51.980;5.918;2023-12-20T11:10:10;10.30;87.00
43520;DHT22;46848;51.980;5.918;2023-12-20T11:12:41;10.30;87.10
43520;DHT22;46848;51.980;5.918;2023-12-20T11:15:09;10.30;87.00
43520;DHT22;46848;51.980;5.918;2023-12-20T11:17:35;10.30;87.10
43520;DHT22;46848;51.980;5.918;2023-12-20T11:20:05;10.30;87.10
43520;DHT22;46848;51.980;5.918;2023-12-20T11:22:31;10.20;87.10
43520;DHT22;46848;51.980;5.918;2023-12-20T11:25:06;10.30;87.20
43520;DHT22;46848;51.980;5.918;2023-12-20T11:27:34;10.30;87.30
43520;DHT22;46848;51.980;5.918;2023-12-20T11:29:59;10.30;87.20
43520;DHT22;46848;51.980;5.918;2023-12-20T11:35:16;10.30;87.30
43520;DHT22;46848;51.980;5.918;2023-12-20T11:37:41;10.40;87.40
43520;DHT22;46848;51.980;5.918;2023-12-20T11:40:11;10.40;87.30
43520;DHT22;46848;51.980;5.918;2023-12-20T11:42:41;10.40;87.30
43520;DHT22;46848;51.980;5.918;2023-12-20T11:45:13;10.40;87.20
43520;DHT22;46848;51.980;5.918;2023-12-20T11:47:42;10.40;87.20
43520;DHT22;46848;51.980;5.918;2023-12-20T11:50:07;10.40;87.20
43520;DHT22;46848;51.980;5.918;2023-12-20T11:52:33;10.50;87.30
43520;DHT22;46848;51.980;5.918;2023-12-20T11:54:59;10.50;87.30
43520;DHT22;46848;51.980;5.918;2023-12-20T11:57:25;10.50;87.10
43520;DHT22;46848;51.980;5.918;2023-12-20T11:59:51;10.50;87.10
43520;DHT22;46848;51.980;5.918;2023-12-20T12:02:16;10.60;87.10
43520;DHT22;46848;51.980;5.918;2023-12-20T12:04:42;10.60;87.10
43520;DHT22;46848;51.980;5.918;2023-12-20T12:07:07;10.60;87.00
43520;DHT22;46848;51.980;5.918;2023-12-20T12:09:34;10.60;87.00
43520;DHT22;46848;51.980;5.918;2023-12-20T12:11:59;10.60;87.00
43520;DHT22;46848;51.980;5.918;2023-12-20T12:14:25;10.60;87.00
43520;DHT22;46848;51.980;5.918;2023-12-20T12:16:51;10.70;87.00
43520;DHT22;46848;51.980;5.918;2023-12-20T12:19:26;10.70;86.90
43520;DHT22;46848;51.980;5.918;2023-12-20T12:22:10;10.70;86.70
43520;DHT22;46848;51.980;5.918;2023-12-20T12:24:38;10.70;86.60
43520;DHT22;46848;51.980;5.918;2023-12-20T12:27:06;10.70;86.30
43520;DHT22;46848;51.980;5.918;2023-12-20T12:29:33;10.80;86.30
43520;DHT22;46848;51.980;5.918;2023-12-20T12:31:59;10.80;86.70
43520;DHT22;46848;51.980;5.918;2023-12-20T12:34:27;10.80;86.00
43520;DHT22;46848;51.980;5.918;2023-12-20T12:36:53;10.80;85.80
43520;DHT22;46848;51.980;5.918;2023-12-20T12:39:19;10.80;85.60
43520;DHT22;46848;51.980;5.918;2023-12-20T12:41:45;10.90;85.60
43520;DHT22;46848;51.980;5.918;2023-12-20T12:44:10;10.90;85.40
43520;DHT22;46848;51.980;5.918;2023-12-20T12:46:36;10.90;85.40
43520;DHT22;46848;51.980;5.918;2023-12-20T12:49:01;10.90;85.40
43520;DHT22;46848;51.980;5.918;2023-12-20T12:51:27;10.90;85.30
43520;DHT22;46848;51.980;5.918;2023-12-20T12:53:53;10.90;85.30
43520;DHT22;46848;51.980;5.918;2023-12-20T12:56:19;10.90;85.30
43520;DHT22;46848;51.980;5.918;2023-12-20T12:58:44;11.00;86.00
43520;DHT22;46848;51.980;5.918;2023-12-20T13:01:10;10.90;85.40
43520;DHT22;46848;51.980;5.918;2023-12-20T13:03:37;11.00;85.50
43520;DHT22;46848;51.980;5.918;2023-12-20T13:06:03;10.90;85.50
43520;DHT22;46848;51.980;5.918;2023-12-20T13:08:31;11.00;85.70
43520;DHT22;46848;51.980;5.918;2023-12-20T13:10:56;11.00;85.60
43520;DHT22;46848;51.980;5.918;2023-12-20T13:13:28;11.00;85.60
43520;DHT22;46848;51.980;5.918;2023-12-20T13:15:54;11.00;85.60
43520;DHT22;46848;51.980;5.918;2023-12-20T13:18:21;11.00;85.50
43520;DHT22;46848;51.980;5.918;2023-12-20T13:20:47;11.10;85.50
43520;DHT22;46848;51.980;5.918;2023-12-20T13:23:12;11.10;85.40
43520;DHT22;46848;51.980;5.918;2023-12-20T13:25:38;11.10;85.40
43520;DHT22;46848;51.980;5.918;2023-12-20T13:28:04;11.10;85.30
43520;DHT22;46848;51.980;5.918;2023-12-20T13:30:30;11.10;85.30
43520;DHT22;46848;51.980;5.918;2023-12-20T13:32:55;11.10;85.20
43520;DHT22;46848;51.980;5.918;2023-12-20T13:35:21;11.10;85.30
43520;DHT22;46848;51.980;5.918;2023-12-20T13:37:47;11.10;85.30
43520;DHT22;46848;51.980;5.918;2023-12-20T13:40:13;11.10;85.30
43520;DHT22;46848;51.980;5.918;2023-12-20T13:42:39;11.10;85.30
43520;DHT22;46848;51.980;5.918;2023-12-20T13:45:05;11.10;85.40
43520;DHT22;46848;51.980;5.918;2023-12-20T13:47:32;11.10;85.20
43520;DHT22;46848;51.980;5.918;2023-12-20T13:49:57;11.10;85.20
43520;DHT22;46848;51.980;5.918;2023-12-20T13:52:23;11.10;85.10
43520;DHT22;46848;51.980;5.918;2023-12-20T13:54:49;11.10;85.00
43520;DHT22;46848;51.980;5.918;2023-12-20T13:57:14;11.10;85.10
43520;DHT22;46848;51.980;5.918;2023-12-20T13:59:40;11.10;85.10
43520;DHT22;46848;51.980;5.918;2023-12-20T14:02:06;11.10;85.00
43520;DHT22;46848;51.980;5.918;2023-12-20T14:04:31;11.10;85.00
43520;DHT22;46848;51.980;5.918;2023-12-20T14:06:57;11.10;85.00
43520;DHT22;46848;51.980;5.918;2023-12-20T14:09:23;11.10;84.90
43520;DHT22;46848;51.980;5.918;2023-12-20T14:11:49;11.10;85.00
43520;DHT22;46848;51.980;5.918;2023-12-20T14:14:14;11.20;85.00
43520;DHT22;46848;51.980;5.918;2023-12-20T14:16:40;11.20;84.90
43520;DHT22;46848;51.980;5.918;2023-12-20T14:19:06;11.20;84.80
43520;DHT22;46848;51.980;5.918;2023-12-20T14:21:34;11.20;84.80
43520;DHT22;46848;51.980;5.918;2023-12-20T14:24:00;11.20;84.80
43520;DHT22;46848;51.980;5.918;2023-12-20T14:26:26;11.20;84.70
43520;DHT22;46848;51.980;5.918;2023-12-20T14:28:53;11.20;84.60
43520;DHT22;46848;51.980;5.918;2023-12-20T14:31:18;11.20;84.70
43520;DHT22;46848;51.980;5.918;2023-12-20T14:33:44;11.10;84.40
43520;DHT22;46848;51.980;5.918;2023-12-20T14:36:11;11.10;84.40
43520;DHT22;46848;51.980;5.918;2023-12-20T14:38:37;11.10;84.40
43520;DHT22;46848;51.980;5.918;2023-12-20T14:41:03;11.10;84.30
43520;DHT22;46848;51.980;5.918;2023-12-20T14:43:29;11.10;84.40
43520;DHT22;46848;51.980;5.918;2023-12-20T14:45:55;11.10;84.40
43520;DHT22;46848;51.980;5.918;2023-12-20T14:48:21;11.10;84.40
43520;DHT22;46848;51.980;5.918;2023-12-20T14:50:47;11.10;84.30
43520;DHT22;46848;51.980;5.918;2023-12-20T14:53:14;11.10;84.20
43520;DHT22;46848;51.980;5.918;2023-12-20T14:55:42;11.20;84.30
43520;DHT22;46848;51.980;5.918;2023-12-20T14:58:07;11.20;84.20
43520;DHT22;46848;51.980;5.918;2023-12-20T15:00:33;11.10;84.10
43520;DHT22;46848;51.980;5.918;2023-12-20T15:02:59;11.10;84.10
43520;DHT22;46848;51.980;5.918;2023-12-20T15:05:25;11.10;84.10
43520;DHT22;46848;51.980;5.918;2023-12-20T15:07:51;11.10;84.10
43520;DHT22;46848;51.980;5.918;2023-12-20T15:10:18;11.10;84.20
43520;DHT22;46848;51.980;5.918;2023-12-20T15:12:44;11.20;84.20
43520;DHT22;46848;51.980;5.918;2023-12-20T15:15:10;11.10;84.00
43520;DHT22;46848;51.980;5.918;2023-12-20T15:17:36;11.10;84.10
43520;DHT22;46848;51.980;5.918;2023-12-20T15:20:02;11.10;84.20
43520;DHT22;46848;51.980;5.918;2023-12-20T15:22:29;11.10;84.20
43520;DHT22;46848;51.980;5.918;2023-12-20T15:24:55;11.10;84.20
43520;DHT22;46848;51.980;5.918;2023-12-20T15:27:20;11.10;84.20
43520;DHT22;46848;51.980;5.918;2023-12-20T15:29:46;11.10;84.20
43520;DHT22;46848;51.980;5.918;2023-12-20T15:32:12;11.10;84.20
43520;DHT22;46848;51.980;5.918;2023-12-20T15:34:38;11.10;84.20
43520;DHT22;46848;51.980;5.918;2023-12-20T15:37:03;11.10;84.20
43520;DHT22;46848;51.980;5.918;2023-12-20T15:39:29;11.10;84.30